createdAt,value
2022-09-24T00:01:20.490Z,101116.25
2022-09-24T00:04:18.941Z,101127.09
2022-09-24T00:07:15.525Z,101128.16
2022-09-24T00:10:12.865Z,101126.66
2022-09-24T00:13:12.296Z,101127.41
2022-09-24T00:16:11.585Z,101119.59
2022-09-24T00:19:08.368Z,101107.88
2022-09-24T00:22:06.002Z,101111.38
2022-09-24T00:25:22.182Z,101106.47
2022-09-24T00:28:19.316Z,101101.59
2022-09-24T00:31:16.862Z,101101.91
2022-09-24T00:34:13.915Z,101101.91
2022-09-24T00:37:11.156Z,101103.47
2022-09-24T00:40:09.593Z,101100.16
2022-09-24T00:43:25.355Z,101094.69
2022-09-24T00:46:41.712Z,101089.63
2022-09-24T00:49:39.478Z,101088.44
2022-09-24T00:52:40.413Z,101093.31
2022-09-24T00:55:37.861Z,101095.31
2022-09-24T00:58:34.822Z,101083.28
2022-09-24T01:01:31.402Z,101091.16
2022-09-24T01:04:29.526Z,101085.09
2022-09-24T01:07:26.884Z,101089.63
2022-09-24T01:10:51.005Z,101089.78
2022-09-24T01:14:03.582Z,101080.47
2022-09-24T01:17:19.494Z,101084.19
2022-09-24T01:20:16.315Z,101081.81
2022-09-24T01:23:25.747Z,101079.19
2022-09-24T01:26:48.056Z,101075.44
2022-09-24T01:29:58.536Z,101068.66
2022-09-24T01:32:58.314Z,101072.00
2022-09-24T01:35:57.382Z,101071.84
2022-09-24T01:38:55.095Z,101068.16
2022-09-24T01:41:52.720Z,101073.25
2022-09-24T01:44:50.315Z,101072.94
2022-09-24T01:47:47.958Z,101065.81
2022-09-24T01:50:53.557Z,101061.25
2022-09-24T01:53:50.567Z,101057.63
2022-09-24T01:56:48.946Z,101048.41
2022-09-24T02:00:02.354Z,101050.94
2022-09-24T02:03:17.693Z,101046.84
2022-09-24T02:06:30.478Z,101037.81
2022-09-24T02:09:38.577Z,101044.31
2022-09-24T02:12:38.094Z,101039.44
2022-09-24T02:15:37.929Z,101034.75
2022-09-24T02:18:36.476Z,101044.66
2022-09-24T02:21:33.994Z,101040.66
2022-09-24T02:24:34.674Z,101040.34
2022-09-24T02:27:31.887Z,101036.06
2022-09-24T02:30:29.117Z,101034.44
2022-09-24T02:33:45.346Z,101032.22
2022-09-24T02:36:43.286Z,101034.22
2022-09-24T02:39:41.329Z,101039.06
2022-09-24T02:42:39.362Z,101031.97
2022-09-24T02:45:36.685Z,101032.56
2022-09-24T02:48:33.581Z,101034.50
2022-09-24T02:51:30.698Z,101030.34
2022-09-24T02:54:27.703Z,101028.44
2022-09-24T02:57:24.506Z,101020.16
2022-09-24T03:00:21.881Z,101012.09
2022-09-24T03:03:19.074Z,101013.59
2022-09-24T03:06:16.024Z,101011.19
2022-09-24T03:09:13.113Z,101015.94
2022-09-24T03:12:10.913Z,101012.09
2022-09-24T03:15:09.175Z,101014.78
2022-09-24T03:18:05.953Z,101016.19
2022-09-24T03:21:07.246Z,101009.28
2022-09-24T03:24:04.956Z,101010.34
2022-09-24T03:27:01.670Z,101006.88
2022-09-24T03:30:17.152Z,101004.50
2022-09-24T03:33:13.900Z,100997.75
2022-09-24T03:36:17.399Z,100999.41
2022-09-24T03:39:14.766Z,100995.09
2022-09-24T03:42:11.719Z,100984.72
2022-09-24T03:45:09.492Z,100982.78
2022-09-24T03:48:07.068Z,100983.44
2022-09-24T03:51:08.918Z,100986.66
2022-09-24T03:54:05.983Z,100982.56
2022-09-24T03:57:02.947Z,100980.06
2022-09-24T03:59:59.880Z,100972.84
2022-09-24T04:02:56.672Z,100958.59
2022-09-24T04:05:53.953Z,100969.56
2022-09-24T04:08:51.689Z,100964.25
2022-09-24T04:11:48.803Z,100966.72
2022-09-24T04:14:45.705Z,100970.75
2022-09-24T04:17:42.672Z,100965.63
2022-09-24T04:20:39.885Z,100959.25
2022-09-24T04:23:36.815Z,100969.00
2022-09-24T04:26:33.982Z,100968.59
2022-09-24T04:29:31.123Z,100963.78
2022-09-24T04:32:28.016Z,100958.94
2022-09-24T04:35:25.229Z,100960.38
2022-09-24T04:38:22.675Z,100955.97
2022-09-24T04:41:20.706Z,100955.88
2022-09-24T04:44:17.798Z,100957.16
2022-09-24T04:47:15.151Z,100951.28
2022-09-24T04:50:12.648Z,100945.38
2022-09-24T04:53:10.037Z,100950.31
2022-09-24T04:56:11.271Z,100942.94
2022-09-24T04:59:08.918Z,100945.38
2022-09-24T05:02:09.614Z,100951.56
2022-09-24T05:05:07.231Z,100945.00
2022-09-24T05:08:04.876Z,100954.53
2022-09-24T05:11:02.567Z,100953.50
2022-09-24T05:14:00.222Z,100955.97
2022-09-24T05:16:56.982Z,100955.41
2022-09-24T05:19:54.267Z,100949.88
2022-09-24T05:22:51.774Z,100956.63
2022-09-24T05:26:07.289Z,100960.50
2022-09-24T05:29:05.045Z,100959.47
2022-09-24T05:32:06.664Z,100960.03
2022-09-24T05:35:04.223Z,100956.63
2022-09-24T05:38:00.801Z,100958.84
2022-09-24T05:40:58.121Z,100960.25
2022-09-24T05:43:57.074Z,100958.38
2022-09-24T05:46:53.991Z,100956.72
2022-09-24T05:49:50.849Z,100963.75
2022-09-24T05:52:47.921Z,100962.16
2022-09-24T05:55:44.874Z,100958.97
2022-09-24T05:58:41.685Z,100966.28
2022-09-24T06:01:39.352Z,100965.16
2022-09-24T06:04:37.017Z,100966.38
2022-09-24T06:07:33.954Z,100964.69
2022-09-24T06:10:31.013Z,100962.09
2022-09-24T06:13:28.294Z,100965.75
2022-09-24T06:16:24.953Z,100960.38
2022-09-24T06:19:21.935Z,100970.59
2022-09-24T06:22:18.789Z,100963.00
2022-09-24T06:25:16.316Z,100966.66
2022-09-24T06:28:13.966Z,100970.13
2022-09-24T06:31:12.514Z,100971.94
2022-09-24T06:34:10.247Z,100973.22
2022-09-24T06:37:07.134Z,100967.53
2022-09-24T06:40:04.265Z,100976.88
2022-09-24T06:43:01.887Z,100982.25
2022-09-24T06:45:59.549Z,100978.47
2022-09-24T06:48:56.971Z,100972.88
2022-09-24T06:51:57.000Z,100975.47
2022-09-24T06:54:55.964Z,100982.84
2022-09-24T06:58:09.721Z,100979.63
2022-09-24T07:01:08.015Z,100981.44
2022-09-24T07:04:05.240Z,100985.34
2022-09-24T07:07:20.801Z,100975.72
2022-09-24T07:10:18.011Z,100978.19
2022-09-24T07:13:15.286Z,100972.66
2022-09-24T07:16:13.076Z,100965.56
2022-09-24T07:19:09.910Z,100965.06
2022-09-24T07:22:06.747Z,100975.13
2022-09-24T07:25:04.227Z,100974.13
2022-09-24T07:28:04.858Z,100971.16
2022-09-24T07:31:01.872Z,100984.00
2022-09-24T07:33:58.634Z,100975.56
2022-09-24T07:36:56.403Z,100972.72
2022-09-24T07:39:53.943Z,100976.09
2022-09-24T07:42:51.129Z,100984.06
2022-09-24T07:45:49.119Z,100978.75
2022-09-24T07:48:46.157Z,100981.06
2022-09-24T07:51:43.310Z,100978.03
2022-09-24T07:54:41.405Z,100987.22
2022-09-24T07:57:39.414Z,100992.59
2022-09-24T08:00:37.054Z,100985.28
2022-09-24T08:03:34.230Z,100991.47
2022-09-24T08:06:38.341Z,100993.50
2022-09-24T08:09:37.191Z,100985.06
2022-09-24T08:12:34.127Z,100991.56
2022-09-24T08:15:31.229Z,100996.06
2022-09-24T08:18:28.945Z,100997.72
2022-09-24T08:21:26.238Z,100989.63
2022-09-24T08:24:23.417Z,100991.91
2022-09-24T08:27:21.140Z,100989.63
2022-09-24T08:30:18.493Z,100993.75
2022-09-24T08:33:16.263Z,101000.50
2022-09-24T08:36:12.969Z,101010.00
2022-09-24T08:39:10.640Z,100997.81
2022-09-24T08:42:13.796Z,101000.28
2022-09-24T08:45:29.350Z,100999.78
2022-09-24T08:48:25.803Z,101003.50
2022-09-24T08:51:23.299Z,101002.28
2022-09-24T08:54:20.176Z,101004.16
2022-09-24T08:57:18.096Z,101001.75
2022-09-24T09:00:15.698Z,100997.75
2022-09-24T09:03:30.949Z,101000.66
2022-09-24T09:06:56.505Z,101005.84
2022-09-24T09:10:28.331Z,101006.75
2022-09-24T09:13:35.301Z,101005.09
2022-09-24T09:17:30.735Z,101008.88
2022-09-24T09:20:31.813Z,101014.13
2022-09-24T09:23:47.755Z,101015.53
2022-09-24T09:26:48.628Z,101013.78
2022-09-24T09:29:51.381Z,101016.31
2022-09-24T09:33:27.272Z,101016.75
2022-09-24T09:36:26.718Z,101014.56
2022-09-24T09:39:33.280Z,101017.28
2022-09-24T09:42:36.248Z,101013.84
2022-09-24T09:45:36.225Z,101013.72
2022-09-24T09:48:45.311Z,101019.03
2022-09-24T09:51:43.003Z,101019.09
2022-09-24T09:54:42.072Z,101015.00
2022-09-24T09:57:39.317Z,101019.97
2022-09-24T10:00:36.580Z,101024.78
2022-09-24T10:03:49.760Z,101012.41
2022-09-24T10:06:47.257Z,101006.34
2022-09-24T10:09:44.938Z,101011.84
2022-09-24T10:12:42.250Z,101017.28
2022-09-24T10:15:52.930Z,101017.84
2022-09-24T10:18:50.385Z,101020.88
2022-09-24T10:21:46.810Z,101018.47
2022-09-24T10:24:44.172Z,101026.00
2022-09-24T10:27:41.217Z,101016.38
2022-09-24T10:30:38.232Z,101009.13
2022-09-24T10:33:42.463Z,101008.88
2022-09-24T10:36:38.842Z,101004.91
2022-09-24T10:39:36.196Z,101008.88
2022-09-24T10:42:33.143Z,101005.84
2022-09-24T10:45:48.991Z,101010.06
2022-09-24T10:48:53.636Z,101004.84
2022-09-24T10:51:50.947Z,101014.13
2022-09-24T10:55:27.143Z,101009.38
2022-09-24T10:58:59.319Z,101007.00
2022-09-24T11:02:20.690Z,101012.56
2022-09-24T11:05:25.363Z,101004.25
2022-09-24T11:08:41.692Z,101001.31
2022-09-24T11:11:47.904Z,101002.56
2022-09-24T11:14:57.864Z,101011.50
2022-09-24T11:18:01.899Z,101006.91
2022-09-24T11:21:20.392Z,100999.75
2022-09-24T11:24:35.914Z,101008.28
2022-09-24T11:27:48.758Z,101005.91
2022-09-24T11:30:47.865Z,101004.53
2022-09-24T11:34:23.198Z,101008.66
2022-09-24T11:37:39.340Z,101008.38
2022-09-24T11:41:00.600Z,100998.94
2022-09-24T11:44:22.307Z,101002.88
2022-09-24T11:47:39.266Z,101009.84
2022-09-24T11:50:49.082Z,101003.72
2022-09-24T11:53:58.045Z,101002.97
2022-09-24T11:57:02.985Z,100998.97
2022-09-24T12:00:12.061Z,100999.84
2022-09-24T12:03:29.048Z,101002.09
2022-09-24T12:06:35.826Z,100999.41
2022-09-24T12:09:46.896Z,101002.53
2022-09-24T12:12:44.265Z,101006.63
2022-09-24T12:15:50.668Z,101001.81
2022-09-24T12:19:01.851Z,100998.47
2022-09-24T12:21:59.768Z,100998.53
2022-09-24T12:24:59.301Z,100996.94
2022-09-24T12:27:56.335Z,100994.16
2022-09-24T12:31:13.478Z,101002.53
2022-09-24T12:34:22.126Z,100996.81
2022-09-24T12:37:23.618Z,100998.53
2022-09-24T12:40:30.523Z,100999.53
2022-09-24T12:43:51.509Z,101001.41
2022-09-24T12:46:52.711Z,101001.16
2022-09-24T12:50:01.385Z,101002.38
2022-09-24T12:52:58.093Z,101007.63
2022-09-24T12:56:01.411Z,101001.81
2022-09-24T12:58:58.436Z,101007.28
2022-09-24T13:01:55.706Z,100998.50
2022-09-24T13:05:02.017Z,100999.53
2022-09-24T13:08:08.066Z,100995.16
2022-09-24T13:11:23.588Z,100996.53
2022-09-24T13:14:21.933Z,100991.19
2022-09-24T13:17:19.221Z,100990.34
2022-09-24T13:20:19.409Z,100991.88
2022-09-24T13:23:22.191Z,100983.72
2022-09-24T13:26:24.744Z,100982.25
2022-09-24T13:29:24.528Z,100990.13
2022-09-24T13:32:21.273Z,100986.66
2022-09-24T13:35:22.299Z,100982.81
2022-09-24T13:38:27.396Z,100980.72
2022-09-24T13:41:57.308Z,100978.56
2022-09-24T13:44:59.318Z,100984.72
2022-09-24T13:48:05.868Z,100983.69
2022-09-24T13:51:04.365Z,100986.19
2022-09-24T13:54:25.157Z,100989.66
2022-09-24T13:57:26.873Z,100986.72
2022-09-24T14:00:27.529Z,100990.25
2022-09-24T14:03:27.067Z,100988.78
2022-09-24T14:06:48.354Z,100990.84
2022-09-24T14:09:47.757Z,100983.88
2022-09-24T14:12:45.444Z,100985.94
2022-09-24T14:16:09.280Z,100990.06
2022-09-24T14:19:06.596Z,100981.44
2022-09-24T14:22:03.982Z,100991.44
2022-09-24T14:25:07.992Z,100984.91
2022-09-24T14:28:05.415Z,100988.88
2022-09-24T14:31:02.518Z,100984.50
2022-09-24T14:34:00.722Z,100975.91
2022-09-24T14:36:59.398Z,100984.19
2022-09-24T14:40:13.707Z,100987.50
2022-09-24T14:43:21.911Z,100990.84
2022-09-24T14:46:22.543Z,100990.34
2022-09-24T14:49:23.910Z,100990.56
2022-09-24T14:52:40.286Z,100987.31
2022-09-24T14:55:39.176Z,100981.97
2022-09-24T14:58:36.627Z,100987.31
2022-09-24T15:01:34.311Z,100982.16
2022-09-24T15:04:31.214Z,100986.19
2022-09-24T15:07:29.965Z,100992.28
2022-09-24T15:10:27.516Z,100986.19
2022-09-24T15:13:26.511Z,100990.78
2022-09-24T15:16:35.985Z,100996.09
2022-09-24T15:19:34.812Z,100995.34
2022-09-24T15:22:32.750Z,100993.72
2022-09-24T15:25:30.101Z,101000.13
2022-09-24T15:28:29.262Z,101004.19
2022-09-24T15:31:26.493Z,101005.78
2022-09-24T15:34:23.363Z,101003.00
2022-09-24T15:37:21.122Z,101007.59
2022-09-24T15:40:23.226Z,101003.72
2022-09-24T15:43:22.595Z,101005.38
2022-09-24T15:46:19.444Z,101007.41
2022-09-24T15:49:21.864Z,101010.88
2022-09-24T15:52:26.908Z,101012.22
2022-09-24T15:55:24.623Z,101003.31
2022-09-24T15:58:22.168Z,101010.38
2022-09-24T16:01:19.930Z,101014.88
2022-09-24T16:04:17.483Z,101015.16
2022-09-24T16:07:14.311Z,101015.69
2022-09-24T16:10:11.952Z,101004.16
2022-09-24T16:13:10.233Z,101014.28
2022-09-24T16:16:08.323Z,101014.28
2022-09-24T16:19:09.760Z,101013.38
2022-09-24T16:22:07.389Z,101025.31
2022-09-24T16:25:04.706Z,101023.25
2022-09-24T16:28:02.397Z,101018.78
2022-09-24T16:30:59.479Z,101034.22
2022-09-24T16:33:56.543Z,101027.75
2022-09-24T16:36:53.312Z,101029.81
2022-09-24T16:39:50.496Z,101035.56
2022-09-24T16:42:47.262Z,101035.53
2022-09-24T16:45:44.597Z,101037.50
2022-09-24T16:48:44.414Z,101036.13
2022-09-24T16:51:41.348Z,101032.34
2022-09-24T16:54:38.599Z,101034.81
2022-09-24T16:57:38.793Z,101040.59
2022-09-24T17:00:36.239Z,101043.94
2022-09-24T17:03:33.981Z,101045.53
2022-09-24T17:06:31.401Z,101049.19
2022-09-24T17:09:47.051Z,101048.03
2022-09-24T17:12:46.496Z,101043.19
2022-09-24T17:15:43.370Z,101040.28
2022-09-24T17:18:40.525Z,101051.28
2022-09-24T17:21:38.221Z,101048.41
2022-09-24T17:24:39.882Z,101048.09
2022-09-24T17:27:37.557Z,101044.50
2022-09-24T17:30:34.782Z,101053.91
2022-09-24T17:33:47.176Z,101049.66
2022-09-24T17:36:44.530Z,101045.16
2022-09-24T17:39:42.042Z,101052.47
2022-09-24T17:42:45.909Z,101055.84
2022-09-24T17:45:43.449Z,101059.38
2022-09-24T17:48:42.757Z,101058.22
2022-09-24T17:51:39.466Z,101059.25
2022-09-24T17:54:36.683Z,101066.22
2022-09-24T17:57:33.381Z,101066.47
2022-09-24T18:00:30.261Z,101071.97
2022-09-24T18:03:27.808Z,101065.19
2022-09-24T18:06:27.191Z,101076.13
2022-09-24T18:09:30.179Z,101076.03
2022-09-24T18:12:27.498Z,101071.44
2022-09-24T18:15:25.465Z,101080.47
2022-09-24T18:18:22.444Z,101075.59
2022-09-24T18:21:21.093Z,101085.75
2022-09-24T18:24:18.496Z,101088.59
2022-09-24T18:27:16.128Z,101090.91
2022-09-24T18:30:15.626Z,101095.09
2022-09-24T18:33:12.629Z,101105.19
2022-09-24T18:36:12.091Z,101108.03
2022-09-24T18:39:14.757Z,101114.94
2022-09-24T18:42:13.844Z,101110.25
2022-09-24T18:45:10.890Z,101116.59
2022-09-24T18:48:08.848Z,101115.50
2022-09-24T18:51:05.700Z,101113.06
2022-09-24T18:54:04.521Z,101115.47
2022-09-24T18:57:02.250Z,101113.56
2022-09-24T18:59:59.851Z,101113.25
2022-09-24T19:02:57.003Z,101117.78
2022-09-24T19:05:55.952Z,101127.28
2022-09-24T19:08:53.829Z,101120.38
2022-09-24T19:11:51.630Z,101124.50
2022-09-24T19:14:49.747Z,101128.19
2022-09-24T19:17:48.989Z,101132.59
2022-09-24T19:20:48.592Z,101128.91
2022-09-24T19:23:47.530Z,101126.47
2022-09-24T19:26:44.885Z,101126.72
2022-09-24T19:29:43.298Z,101130.22
2022-09-24T19:32:40.355Z,101126.22
2022-09-24T19:35:37.946Z,101129.50
2022-09-24T19:38:35.729Z,101124.63
2022-09-24T19:41:32.301Z,101130.88
2022-09-24T19:44:29.547Z,101131.94
2022-09-24T19:47:26.697Z,101125.38
2022-09-24T19:50:25.485Z,101133.94
2022-09-24T19:53:22.935Z,101144.22
2022-09-24T19:56:23.635Z,101129.53
2022-09-24T19:59:20.670Z,101136.44
2022-09-24T20:02:17.707Z,101139.34
2022-09-24T20:05:14.665Z,101141.38
2022-09-24T20:08:15.930Z,101139.81
2022-09-24T20:11:15.213Z,101147.41
2022-09-24T20:14:13.325Z,101139.81
2022-09-24T20:17:11.396Z,101140.91
2022-09-24T20:20:09.820Z,101144.44
2022-09-24T20:23:08.431Z,101141.44
2022-09-24T20:26:23.942Z,101145.81
2022-09-24T20:29:22.974Z,101143.69
2022-09-24T20:32:20.674Z,101136.00
2022-09-24T20:35:17.534Z,101139.75
2022-09-24T20:38:14.968Z,101147.03
2022-09-24T20:41:22.878Z,101150.75
2022-09-24T20:44:21.510Z,101147.84
2022-09-24T20:47:18.758Z,101145.69
2022-09-24T20:50:17.943Z,101146.31
2022-09-24T20:53:15.524Z,101151.09
2022-09-24T20:56:12.634Z,101159.19
2022-09-24T20:59:09.594Z,101156.72
2022-09-24T21:02:07.536Z,101159.88
2022-09-24T21:05:04.903Z,101157.53
2022-09-24T21:08:05.768Z,101160.00
2022-09-24T21:11:07.622Z,101164.56
2022-09-24T21:14:05.178Z,101162.59
2022-09-24T21:17:03.444Z,101155.97
2022-09-24T21:20:01.073Z,101165.47
2022-09-24T21:23:00.279Z,101160.97
2022-09-24T21:25:57.541Z,101156.59
2022-09-24T21:29:16.842Z,101168.25
2022-09-24T21:32:19.302Z,101159.78
2022-09-24T21:35:17.528Z,101145.00
2022-09-24T21:38:19.277Z,101160.94
2022-09-24T21:41:16.838Z,101155.66
2022-09-24T21:44:17.914Z,101161.44
2022-09-24T21:47:14.869Z,101169.16
2022-09-24T21:50:11.462Z,101168.34
2022-09-24T21:53:08.979Z,101170.47
2022-09-24T21:56:07.007Z,101156.88
2022-09-24T21:59:27.376Z,101158.09
2022-09-24T22:02:25.243Z,101163.22
2022-09-24T22:05:22.918Z,101169.66
2022-09-24T22:08:21.284Z,101159.84
2022-09-24T22:11:19.380Z,101166.63
2022-09-24T22:14:16.894Z,101163.59
2022-09-24T22:17:14.984Z,101158.44
2022-09-24T22:20:13.398Z,101157.22
2022-09-24T22:23:11.427Z,101157.31
2022-09-24T22:26:09.471Z,101154.22
2022-09-24T22:29:07.336Z,101165.59
2022-09-24T22:32:04.879Z,101159.59
2022-09-24T22:35:20.578Z,101157.72
2022-09-24T22:38:18.143Z,101158.22
2022-09-24T22:41:16.316Z,101150.56
2022-09-24T22:44:14.050Z,101151.00
2022-09-24T22:47:11.607Z,101150.56
2022-09-24T22:50:09.677Z,101149.00
2022-09-24T22:53:07.117Z,101136.78
2022-09-24T22:56:12.843Z,101142.78
2022-09-24T22:59:09.778Z,101146.28
2022-09-24T23:02:12.309Z,101143.34
2022-09-24T23:05:11.015Z,101149.44
2022-09-24T23:08:07.963Z,101144.28
2022-09-24T23:11:12.922Z,101143.88
2022-09-24T23:14:15.758Z,101137.41
2022-09-24T23:17:13.642Z,101140.66
2022-09-24T23:20:10.674Z,101137.47
2022-09-24T23:23:07.936Z,101137.81
2022-09-24T23:26:18.024Z,101141.50
2022-09-24T23:29:15.613Z,101134.81
2022-09-24T23:32:13.132Z,101132.53
2022-09-24T23:35:10.662Z,101133.88
2022-09-24T23:38:07.709Z,101130.09
2022-09-24T23:41:05.452Z,101127.16
2022-09-24T23:44:03.411Z,101134.28
2022-09-24T23:47:01.219Z,101137.25
2022-09-24T23:49:58.917Z,101144.75
2022-09-24T23:52:55.950Z,101145.72
2022-09-24T23:55:54.171Z,101138.47
2022-09-24T23:58:51.023Z,101141.31
